createdAt,value
2023-04-16T08:01:10.575Z,25.00
2023-04-16T08:02:10.735Z,25.00
2023-04-16T08:03:10.756Z,25.00
2023-04-16T08:04:10.817Z,25.00
2023-04-16T08:05:10.707Z,25.00
2023-04-16T08:06:10.749Z,25.00
2023-04-16T08:07:10.762Z,0.00
2023-04-16T08:08:10.819Z,0.00
2023-04-16T08:09:11.031Z,0.00
2023-04-16T08:10:10.786Z,0.00
2023-04-16T08:11:10.840Z,0.00
2023-04-16T08:12:10.877Z,0.00
2023-04-16T08:13:10.930Z,0.00
2023-04-16T08:14:10.969Z,0.00
2023-04-16T08:15:10.988Z,0.00
2023-04-16T08:16:11.091Z,0.00
2023-04-16T08:17:11.093Z,0.00
2023-04-16T08:18:11.137Z,0.00
2023-04-16T08:19:11.388Z,0.00
2023-04-16T08:20:14.040Z,0.00
2023-04-16T08:21:11.338Z,0.00
2023-04-16T08:22:11.221Z,0.00
2023-04-16T08:23:11.267Z,0.00
2023-04-16T08:24:11.246Z,0.00
2023-04-16T08:25:11.215Z,0.00
2023-04-16T08:26:11.204Z,0.00
2023-04-16T08:27:18.591Z,0.00
2023-04-16T08:28:12.190Z,0.00
2023-04-16T08:29:11.511Z,0.00
2023-04-16T08:30:11.179Z,0.00
2023-04-16T08:31:11.204Z,0.00
2023-04-16T08:32:11.175Z,0.00
2023-04-16T08:33:11.195Z,0.00
2023-04-16T08:34:11.168Z,0.00
2023-04-16T08:35:11.146Z,0.00
2023-04-16T08:36:11.130Z,0.00
2023-04-16T08:37:11.137Z,0.00
2023-04-16T08:38:11.119Z,0.00
2023-04-16T08:39:11.339Z,0.00
2023-04-16T08:40:11.173Z,0.00
2023-04-16T08:41:11.177Z,20.65
2023-04-16T08:42:11.236Z,25.32
2023-04-16T08:43:11.265Z,26.55
2023-04-16T08:44:11.316Z,26.46
2023-04-16T08:45:11.351Z,25.26
2023-04-16T08:46:11.423Z,25.00
2023-04-16T08:47:11.424Z,25.52
2023-04-16T08:48:11.459Z,25.00
2023-04-16T08:49:11.725Z,27.88
2023-04-16T08:50:11.551Z,25.67
2023-04-16T08:51:11.598Z,26.78
2023-04-16T08:52:14.283Z,25.49
2023-04-16T08:53:12.605Z,25.88
2023-04-16T08:54:11.568Z,24.22
2023-04-16T08:55:11.624Z,24.20
2023-04-16T08:56:11.612Z,19.42
2023-04-16T08:57:11.587Z,18.40
2023-04-16T08:58:11.578Z,27.79
2023-04-16T08:59:11.710Z,26.25
2023-04-16T09:00:11.555Z,29.02
2023-04-16T09:01:11.627Z,26.21
2023-04-16T09:02:11.671Z,25.00
2023-04-16T09:03:11.699Z,26.60
2023-04-16T09:04:11.829Z,25.59
2023-04-16T09:05:11.526Z,26.92
2023-04-16T09:06:11.528Z,25.27
2023-04-16T09:07:11.482Z,27.21
2023-04-16T09:08:11.521Z,25.97
2023-04-16T09:09:11.682Z,26.46
2023-04-16T09:10:11.482Z,28.74
2023-04-16T09:11:11.492Z,26.21
2023-04-16T09:12:11.509Z,26.15
2023-04-16T09:13:11.623Z,29.55
2023-04-16T09:14:11.602Z,25.30
2023-04-16T09:15:11.648Z,27.99
2023-04-16T09:16:11.727Z,25.73
2023-04-16T09:17:11.733Z,28.30
2023-04-16T09:18:11.749Z,26.73
2023-04-16T09:19:11.972Z,27.47
2023-04-16T09:20:11.810Z,25.00
2023-04-16T09:21:12.587Z,28.92
2023-04-16T09:22:11.911Z,25.00
2023-04-16T09:23:11.924Z,25.55
2023-04-16T09:24:11.988Z,27.72
2023-04-16T09:25:12.015Z,29.53
2023-04-16T09:26:12.062Z,29.03
2023-04-16T09:27:12.118Z,27.60
2023-04-16T09:28:12.137Z,29.51
2023-04-16T09:29:12.338Z,25.29
2023-04-16T09:30:12.219Z,27.84
2023-04-16T09:31:12.254Z,27.99
2023-04-16T09:32:12.467Z,27.48
2023-04-16T09:33:12.342Z,27.56
2023-04-16T09:34:12.374Z,27.02
2023-04-16T09:35:12.393Z,27.94
2023-04-16T09:36:12.469Z,28.07
2023-04-16T09:37:12.507Z,27.43
2023-04-16T09:38:12.504Z,27.47
2023-04-16T09:39:12.556Z,28.97
2023-04-16T09:40:12.566Z,28.84
2023-04-16T09:41:12.722Z,28.40
2023-04-16T09:42:12.725Z,25.74
2023-04-16T09:43:12.733Z,27.01
2023-04-16T09:44:12.778Z,27.16
2023-04-16T09:45:12.774Z,30.10
2023-04-16T09:46:12.952Z,27.00
2023-04-16T09:47:12.868Z,26.25
2023-04-16T09:48:12.887Z,28.05
2023-04-16T09:49:13.129Z,26.36
2023-04-16T09:50:13.498Z,30.32
2023-04-16T09:51:13.046Z,30.57
2023-04-16T09:52:13.023Z,30.95
2023-04-16T09:53:13.097Z,28.53
2023-04-16T09:54:13.132Z,27.86
2023-04-16T09:55:13.180Z,26.87
2023-04-16T09:56:13.166Z,30.02
2023-04-16T09:57:13.208Z,29.50
2023-04-16T09:58:13.282Z,28.75
2023-04-16T09:59:13.273Z,29.10
2023-04-16T10:00:13.353Z,27.51
2023-04-16T10:01:13.456Z,26.01
2023-04-16T10:02:15.554Z,27.33
2023-04-16T10:03:13.577Z,30.22
2023-04-16T10:04:13.430Z,28.96
2023-04-16T10:05:13.360Z,29.50
2023-04-16T10:06:13.357Z,27.36
2023-04-16T10:07:13.400Z,28.15
2023-04-16T10:08:13.344Z,25.80
2023-04-16T10:09:13.337Z,27.27
2023-04-16T10:10:13.360Z,28.34
2023-04-16T10:11:13.372Z,25.57
2023-04-16T10:12:13.339Z,29.56
2023-04-16T10:13:13.360Z,30.29
2023-04-16T10:14:13.311Z,26.52
2023-04-16T10:15:13.321Z,25.66
2023-04-16T10:16:13.354Z,26.21
2023-04-16T10:17:13.340Z,27.98
2023-04-16T10:18:13.335Z,29.27
2023-04-16T10:19:13.314Z,28.71
2023-04-16T10:20:14.229Z,28.17
2023-04-16T10:21:13.270Z,28.87
2023-04-16T10:22:13.282Z,29.62
2023-04-16T10:23:13.241Z,27.40
2023-04-16T10:24:13.253Z,29.16
2023-04-16T10:25:13.252Z,26.73
2023-04-16T10:26:13.222Z,27.35
2023-04-16T10:27:13.246Z,28.74
2023-04-16T10:28:13.270Z,27.83
2023-04-16T10:29:13.326Z,29.79
2023-04-16T10:30:13.334Z,26.52
2023-04-16T10:31:13.393Z,28.22
2023-04-16T10:32:13.400Z,28.46
2023-04-16T10:33:13.424Z,26.52
2023-04-16T10:34:13.501Z,26.96
2023-04-16T10:35:13.519Z,25.26
2023-04-16T10:36:13.528Z,28.76
2023-04-16T10:37:13.569Z,27.42
2023-04-16T10:38:13.583Z,28.44
2023-04-16T10:39:16.280Z,28.88
2023-04-16T10:40:13.630Z,31.10
2023-04-16T10:41:13.710Z,29.72
2023-04-16T10:42:13.610Z,29.04
2023-04-16T10:43:13.593Z,30.52
2023-04-16T10:44:13.610Z,30.25
2023-04-16T10:45:13.622Z,29.36
2023-04-16T10:46:13.660Z,30.71
2023-04-16T10:47:13.605Z,28.73
2023-04-16T10:48:13.597Z,28.59
2023-04-16T10:49:13.585Z,30.65
2023-04-16T10:50:13.572Z,29.90
2023-04-16T10:51:13.556Z,27.80
2023-04-16T10:52:13.572Z,29.46
2023-04-16T10:53:13.541Z,28.20
2023-04-16T10:54:13.572Z,30.28
2023-04-16T10:55:13.551Z,27.55
2023-04-16T10:56:13.530Z,29.94
2023-04-16T10:57:13.513Z,31.69
2023-04-16T10:58:13.492Z,27.57
2023-04-16T10:59:13.538Z,28.16
2023-04-16T11:00:13.491Z,26.99
2023-04-16T11:01:13.572Z,28.49
2023-04-16T11:02:13.624Z,29.33
2023-04-16T11:03:13.596Z,25.52
2023-04-16T11:04:13.566Z,27.81
2023-04-16T11:05:13.495Z,28.97
2023-04-16T11:06:13.458Z,27.35
2023-04-16T11:07:13.475Z,27.54
2023-04-16T11:08:13.452Z,28.49
2023-04-16T11:09:13.444Z,29.82
2023-04-16T11:10:13.453Z,28.61
2023-04-16T11:11:13.457Z,30.89
2023-04-16T11:12:13.467Z,30.39
2023-04-16T11:13:13.425Z,29.65
2023-04-16T11:14:13.377Z,29.06
2023-04-16T11:15:13.436Z,30.24
2023-04-16T11:16:13.471Z,29.60
2023-04-16T11:17:13.361Z,28.54
2023-04-16T11:18:13.387Z,27.61
2023-04-16T11:19:13.367Z,26.69
2023-04-16T11:20:19.370Z,29.55
2023-04-16T11:21:14.397Z,29.66
2023-04-16T11:22:13.344Z,29.82
2023-04-16T11:23:13.394Z,29.78
2023-04-16T11:24:13.338Z,30.45
2023-04-16T11:25:13.347Z,30.84
2023-04-16T11:26:13.303Z,26.74
2023-04-16T11:27:13.358Z,30.45
2023-04-16T11:28:13.345Z,29.07
2023-04-16T11:29:13.312Z,26.49
2023-04-16T11:30:13.347Z,26.82
2023-04-16T11:31:13.331Z,29.47
2023-04-16T11:32:13.307Z,29.07
2023-04-16T11:33:13.305Z,27.95
2023-04-16T11:34:13.313Z,26.93
2023-04-16T11:35:13.292Z,26.66
2023-04-16T11:36:13.330Z,27.43
2023-04-16T11:37:13.393Z,30.91
2023-04-16T11:38:13.411Z,30.28
2023-04-16T11:39:13.435Z,30.93
2023-04-16T11:40:13.439Z,28.51
2023-04-16T11:41:13.473Z,27.51
2023-04-16T11:42:13.544Z,31.28
2023-04-16T11:43:13.592Z,27.83
2023-04-16T11:44:13.543Z,28.82
2023-04-16T11:45:13.588Z,29.76
2023-04-16T11:46:26.428Z,29.69
2023-04-16T11:47:14.621Z,29.92
2023-04-16T11:48:13.625Z,30.10
2023-04-16T11:49:13.904Z,30.57
2023-04-16T11:50:13.588Z,30.13
2023-04-16T11:51:13.579Z,30.21
2023-04-16T11:52:13.611Z,31.09
2023-04-16T11:53:13.601Z,27.09
2023-04-16T11:54:13.535Z,29.48
2023-04-16T11:55:13.538Z,29.34
2023-04-16T11:56:13.531Z,30.05
2023-04-16T11:57:13.535Z,29.66
2023-04-16T11:58:13.531Z,32.04
2023-04-16T11:59:13.753Z,30.72
2023-04-16T12:00:13.543Z,30.75
2023-04-16T12:01:13.555Z,29.09
2023-04-16T12:02:13.636Z,29.43
2023-04-16T12:03:13.804Z,30.22
2023-04-16T12:04:13.763Z,30.38
2023-04-16T12:05:13.690Z,28.38
2023-04-16T12:06:13.700Z,28.94
2023-04-16T12:07:13.727Z,28.56
2023-04-16T12:08:13.721Z,29.20
2023-04-16T12:09:13.772Z,27.70
2023-04-16T12:10:13.811Z,28.15
2023-04-16T12:11:13.837Z,29.64
2023-04-16T12:12:13.845Z,28.45
2023-04-16T12:13:13.852Z,29.87
2023-04-16T12:14:13.932Z,31.07
2023-04-16T12:15:13.952Z,28.47
2023-04-16T12:16:13.977Z,28.55
2023-04-16T12:17:13.990Z,30.80
2023-04-16T12:18:14.017Z,26.95
2023-04-16T12:19:14.028Z,30.09
2023-04-16T12:20:14.056Z,30.40
2023-04-16T12:21:14.092Z,29.06
2023-04-16T12:22:14.119Z,29.21
2023-04-16T12:23:14.138Z,31.33
2023-04-16T12:24:14.179Z,31.07
2023-04-16T12:25:14.218Z,30.20
2023-04-16T12:26:14.234Z,29.83
2023-04-16T12:27:14.251Z,29.46
2023-04-16T12:28:14.316Z,28.64
2023-04-16T12:29:14.344Z,30.13
2023-04-16T12:30:14.332Z,29.14
2023-04-16T12:31:14.365Z,30.01
2023-04-16T12:32:14.380Z,28.63
2023-04-16T12:33:14.420Z,30.41
2023-04-16T12:34:14.500Z,26.81
2023-04-16T12:35:14.448Z,28.65
2023-04-16T12:36:14.486Z,28.68
2023-04-16T12:37:14.501Z,31.12
2023-04-16T12:38:14.574Z,29.91
2023-04-16T12:39:14.594Z,28.44
2023-04-16T12:40:14.608Z,29.46
2023-04-16T12:41:14.649Z,27.04
2023-04-16T12:42:14.665Z,30.84
2023-04-16T12:43:14.665Z,28.36
2023-04-16T12:44:14.711Z,28.28
2023-04-16T12:45:14.737Z,29.22
2023-04-16T12:46:14.771Z,27.72
2023-04-16T12:47:14.778Z,29.76
2023-04-16T12:48:14.778Z,27.10
2023-04-16T12:49:14.947Z,26.25
2023-04-16T12:50:14.858Z,29.30
2023-04-16T12:51:14.890Z,29.98
2023-04-16T12:52:14.921Z,26.15
2023-04-16T12:53:14.998Z,29.71
2023-04-16T12:54:15.006Z,28.81
2023-04-16T12:55:15.045Z,30.12
2023-04-16T12:56:15.045Z,30.12
2023-04-16T12:57:15.100Z,32.04
2023-04-16T12:58:15.125Z,29.24
2023-04-16T12:59:15.169Z,29.61
2023-04-16T13:00:15.178Z,27.34
